sensor_id;sensor_type;location;lat;lon;timestamp;P1;durP1;ratioP1;P2;durP2;ratioP2
18875;SDS011;9570;50.854;13.778;2022-09-09T00:06:16;3.13;;;1.20;;
18875;SDS011;9570;50.854;13.778;2022-09-09T00:11:41;7.07;;;1.40;;
18875;SDS011;9570;50.854;13.778;2022-09-09T00:14:24;4.60;;;1.27;;
18875;SDS011;9570;50.854;13.778;2022-09-09T00:17:00;7.43;;;1.40;;
18875;SDS011;9570;50.854;13.778;2022-09-09T00:19:41;3.53;;;1.17;;
18875;SDS011;9570;50.854;13.778;2022-09-09T00:22:16;2.50;;;1.20;;
18875;SDS011;9570;50.854;13.778;2022-09-09T00:24:45;3.07;;;1.20;;
18875;SDS011;9570;50.854;13.778;2022-09-09T00:29:56;5.77;;;1.30;;
18875;SDS011;9570;50.854;13.778;2022-09-09T00:32:30;2.03;;;1.30;;
18875;SDS011;9570;50.854;13.778;2022-09-09T00:35:45;6.43;;;1.83;;
18875;SDS011;9570;50.854;13.778;2022-09-09T00:37:50;7.37;;;1.53;;
18875;SDS011;9570;50.854;13.778;2022-09-09T00:45:42;6.03;;;1.40;;
18875;SDS011;9570;50.854;13.778;2022-09-09T00:51:30;3.73;;;1.10;;
18875;SDS011;9570;50.854;13.778;2022-09-09T00:54:23;6.93;;;1.10;;
18875;SDS011;9570;50.854;13.778;2022-09-09T00:57:06;2.70;;;1.30;;
18875;SDS011;9570;50.854;13.778;2022-09-09T00:59:56;2.63;;;1.13;;
18875;SDS011;9570;50.854;13.778;2022-09-09T01:02:29;5.80;;;1.30;;
18875;SDS011;9570;50.854;13.778;2022-09-09T01:05:02;3.93;;;1.20;;
18875;SDS011;9570;50.854;13.778;2022-09-09T01:07:44;2.27;;;1.10;;
18875;SDS011;9570;50.854;13.778;2022-09-09T01:10:26;10.93;;;1.50;;
18875;SDS011;9570;50.854;13.778;2022-09-09T01:13:02;4.57;;;1.70;;
18875;SDS011;9570;50.854;13.778;2022-09-09T01:15:33;2.43;;;1.07;;
18875;SDS011;9570;50.854;13.778;2022-09-09T01:18:04;4.07;;;1.23;;
18875;SDS011;9570;50.854;13.778;2022-09-09T01:20:39;4.07;;;1.50;;
18875;SDS011;9570;50.854;13.778;2022-09-09T01:23:19;7.10;;;1.30;;
18875;SDS011;9570;50.854;13.778;2022-09-09T01:28:33;4.40;;;1.20;;
18875;SDS011;9570;50.854;13.778;2022-09-09T01:31:02;5.33;;;1.40;;
18875;SDS011;9570;50.854;13.778;2022-09-09T01:33:30;4.00;;;1.20;;
18875;SDS011;9570;50.854;13.778;2022-09-09T01:35:59;9.17;;;1.40;;
18875;SDS011;9570;50.854;13.778;2022-09-09T01:38:31;4.50;;;1.30;;
18875;SDS011;9570;50.854;13.778;2022-09-09T01:40:59;3.10;;;1.40;;
18875;SDS011;9570;50.854;13.778;2022-09-09T01:43:25;4.37;;;1.37;;
18875;SDS011;9570;50.854;13.778;2022-09-09T01:45:53;4.20;;;1.30;;
18875;SDS011;9570;50.854;13.778;2022-09-09T01:48:21;7.30;;;1.17;;
18875;SDS011;9570;50.854;13.778;2022-09-09T01:50:48;4.10;;;1.17;;
18875;SDS011;9570;50.854;13.778;2022-09-09T01:53:14;3.20;;;1.30;;
18875;SDS011;9570;50.854;13.778;2022-09-09T01:55:44;6.73;;;1.30;;
18875;SDS011;9570;50.854;13.778;2022-09-09T02:00:47;5.70;;;1.30;;
18875;SDS011;9570;50.854;13.778;2022-09-09T02:03:25;6.23;;;1.30;;
18875;SDS011;9570;50.854;13.778;2022-09-09T02:06:14;4.40;;;1.23;;
18875;SDS011;9570;50.854;13.778;2022-09-09T02:08:56;3.87;;;1.40;;
18875;SDS011;9570;50.854;13.778;2022-09-09T02:11:25;4.70;;;1.33;;
18875;SDS011;9570;50.854;13.778;2022-09-09T02:13:53;3.07;;;1.40;;
18875;SDS011;9570;50.854;13.778;2022-09-09T02:16:26;2.77;;;1.30;;
18875;SDS011;9570;50.854;13.778;2022-09-09T02:19:04;5.93;;;1.40;;
18875;SDS011;9570;50.854;13.778;2022-09-09T02:21:49;5.20;;;1.30;;
18875;SDS011;9570;50.854;13.778;2022-09-09T02:24:17;3.27;;;1.43;;
18875;SDS011;9570;50.854;13.778;2022-09-09T02:26:42;1.10;;;1.03;;
18875;SDS011;9570;50.854;13.778;2022-09-09T02:29:20;2.03;;;1.20;;
18875;SDS011;9570;50.854;13.778;2022-09-09T02:31:50;5.23;;;1.60;;
18875;SDS011;9570;50.854;13.778;2022-09-09T02:34:20;4.00;;;1.30;;
18875;SDS011;9570;50.854;13.778;2022-09-09T02:36:49;2.90;;;1.40;;
18875;SDS011;9570;50.854;13.778;2022-09-09T02:39:18;4.07;;;1.30;;
18875;SDS011;9570;50.854;13.778;2022-09-09T02:41:43;6.83;;;1.20;;
18875;SDS011;9570;50.854;13.778;2022-09-09T02:44:13;3.60;;;0.97;;
18875;SDS011;9570;50.854;13.778;2022-09-09T02:49:33;3.80;;;1.10;;
18875;SDS011;9570;50.854;13.778;2022-09-09T02:52:10;5.63;;;1.20;;
18875;SDS011;9570;50.854;13.778;2022-09-09T02:54:42;2.63;;;1.20;;
18875;SDS011;9570;50.854;13.778;2022-09-09T02:57:25;5.40;;;1.40;;
18875;SDS011;9570;50.854;13.778;2022-09-09T02:59:52;4.27;;;1.20;;
18875;SDS011;9570;50.854;13.778;2022-09-09T03:02:20;7.17;;;1.20;;
18875;SDS011;9570;50.854;13.778;2022-09-09T03:04:45;2.30;;;1.13;;
18875;SDS011;9570;50.854;13.778;2022-09-09T03:07:15;4.00;;;1.30;;
18875;SDS011;9570;50.854;13.778;2022-09-09T03:09:42;7.93;;;1.50;;
18875;SDS011;9570;50.854;13.778;2022-09-09T03:12:07;4.77;;;1.50;;
18875;SDS011;9570;50.854;13.778;2022-09-09T03:14:35;3.03;;;1.40;;
18875;SDS011;9570;50.854;13.778;2022-09-09T03:17:00;2.93;;;1.07;;
18875;SDS011;9570;50.854;13.778;2022-09-09T03:19:27;3.00;;;1.20;;
18875;SDS011;9570;50.854;13.778;2022-09-09T03:21:53;1.50;;;1.10;;
18875;SDS011;9570;50.854;13.778;2022-09-09T03:24:19;5.43;;;1.10;;
18875;SDS011;9570;50.854;13.778;2022-09-09T03:26:45;2.33;;;1.20;;
18875;SDS011;9570;50.854;13.778;2022-09-09T03:29:11;2.63;;;1.17;;
18875;SDS011;9570;50.854;13.778;2022-09-09T03:31:37;4.33;;;1.30;;
18875;SDS011;9570;50.854;13.778;2022-09-09T03:34:03;3.63;;;1.20;;
18875;SDS011;9570;50.854;13.778;2022-09-09T03:36:29;3.23;;;1.10;;
18875;SDS011;9570;50.854;13.778;2022-09-09T03:38:55;3.57;;;1.30;;
18875;SDS011;9570;50.854;13.778;2022-09-09T03:41:21;3.27;;;0.83;;
18875;SDS011;9570;50.854;13.778;2022-09-09T03:43:49;2.03;;;1.30;;
18875;SDS011;9570;50.854;13.778;2022-09-09T03:46:15;1.47;;;1.00;;
18875;SDS011;9570;50.854;13.778;2022-09-09T03:48:41;1.63;;;1.43;;
18875;SDS011;9570;50.854;13.778;2022-09-09T03:51:07;3.17;;;1.30;;
18875;SDS011;9570;50.854;13.778;2022-09-09T03:53:32;1.77;;;1.20;;
18875;SDS011;9570;50.854;13.778;2022-09-09T03:55:59;2.37;;;1.20;;
18875;SDS011;9570;50.854;13.778;2022-09-09T03:58:25;2.47;;;1.20;;
18875;SDS011;9570;50.854;13.778;2022-09-09T04:00:53;1.53;;;1.03;;
18875;SDS011;9570;50.854;13.778;2022-09-09T04:03:22;1.10;;;1.00;;
18875;SDS011;9570;50.854;13.778;2022-09-09T04:05:49;2.10;;;1.20;;
18875;SDS011;9570;50.854;13.778;2022-09-09T04:08:18;2.57;;;1.17;;
18875;SDS011;9570;50.854;13.778;2022-09-09T04:10:45;3.90;;;1.37;;
18875;SDS011;9570;50.854;13.778;2022-09-09T04:13:12;6.93;;;1.20;;
18875;SDS011;9570;50.854;13.778;2022-09-09T04:15:39;3.23;;;1.03;;
18875;SDS011;9570;50.854;13.778;2022-09-09T04:18:05;2.60;;;1.10;;
18875;SDS011;9570;50.854;13.778;2022-09-09T04:20:31;5.77;;;1.30;;
18875;SDS011;9570;50.854;13.778;2022-09-09T04:22:57;4.30;;;1.43;;
18875;SDS011;9570;50.854;13.778;2022-09-09T04:25:22;8.90;;;1.17;;
18875;SDS011;9570;50.854;13.778;2022-09-09T04:27:52;2.87;;;1.10;;
18875;SDS011;9570;50.854;13.778;2022-09-09T04:30:19;3.97;;;1.20;;
18875;SDS011;9570;50.854;13.778;2022-09-09T04:32:45;3.47;;;1.07;;
18875;SDS011;9570;50.854;13.778;2022-09-09T04:35:11;4.60;;;1.27;;
18875;SDS011;9570;50.854;13.778;2022-09-09T04:37:37;5.10;;;1.40;;
18875;SDS011;9570;50.854;13.778;2022-09-09T04:40:02;5.87;;;1.27;;
18875;SDS011;9570;50.854;13.778;2022-09-09T04:42:28;6.47;;;1.40;;
18875;SDS011;9570;50.854;13.778;2022-09-09T04:44:53;4.23;;;1.10;;
18875;SDS011;9570;50.854;13.778;2022-09-09T04:47:19;1.00;;;1.00;;
18875;SDS011;9570;50.854;13.778;2022-09-09T04:49:44;4.57;;;1.53;;
18875;SDS011;9570;50.854;13.778;2022-09-09T04:52:10;5.87;;;1.10;;
18875;SDS011;9570;50.854;13.778;2022-09-09T04:54:35;1.93;;;1.10;;
18875;SDS011;9570;50.854;13.778;2022-09-09T04:57:01;2.57;;;1.17;;
18875;SDS011;9570;50.854;13.778;2022-09-09T04:59:26;3.03;;;1.00;;
18875;SDS011;9570;50.854;13.778;2022-09-09T05:01:52;2.50;;;1.10;;
18875;SDS011;9570;50.854;13.778;2022-09-09T05:04:20;3.10;;;1.23;;
18875;SDS011;9570;50.854;13.778;2022-09-09T05:06:45;3.00;;;1.03;;
18875;SDS011;9570;50.854;13.778;2022-09-09T05:09:11;2.90;;;1.27;;
18875;SDS011;9570;50.854;13.778;2022-09-09T05:11:36;4.27;;;1.20;;
18875;SDS011;9570;50.854;13.778;2022-09-09T05:14:03;5.50;;;1.20;;
18875;SDS011;9570;50.854;13.778;2022-09-09T05:16:29;4.00;;;1.10;;
18875;SDS011;9570;50.854;13.778;2022-09-09T05:18:55;1.63;;;1.03;;
18875;SDS011;9570;50.854;13.778;2022-09-09T05:21:21;3.20;;;1.13;;
18875;SDS011;9570;50.854;13.778;2022-09-09T05:23:49;6.93;;;1.30;;
18875;SDS011;9570;50.854;13.778;2022-09-09T05:26:16;2.60;;;1.07;;
18875;SDS011;9570;50.854;13.778;2022-09-09T05:28:43;5.43;;;1.20;;
18875;SDS011;9570;50.854;13.778;2022-09-09T05:31:10;4.07;;;1.20;;
18875;SDS011;9570;50.854;13.778;2022-09-09T05:33:37;3.77;;;1.50;;
18875;SDS011;9570;50.854;13.778;2022-09-09T05:36:06;3.57;;;1.30;;
18875;SDS011;9570;50.854;13.778;2022-09-09T05:38:33;3.57;;;1.30;;
18875;SDS011;9570;50.854;13.778;2022-09-09T05:41:00;2.40;;;1.20;;
18875;SDS011;9570;50.854;13.778;2022-09-09T05:43:26;3.07;;;1.17;;
18875;SDS011;9570;50.854;13.778;2022-09-09T05:46:25;4.63;;;1.27;;
18875;SDS011;9570;50.854;13.778;2022-09-09T05:48:46;5.07;;;1.37;;
18875;SDS011;9570;50.854;13.778;2022-09-09T05:51:16;2.90;;;1.30;;
18875;SDS011;9570;50.854;13.778;2022-09-09T05:53:45;1.93;;;1.20;;
18875;SDS011;9570;50.854;13.778;2022-09-09T05:56:12;2.77;;;1.30;;
18875;SDS011;9570;50.854;13.778;2022-09-09T05:58:40;4.07;;;1.10;;
18875;SDS011;9570;50.854;13.778;2022-09-09T06:01:10;4.97;;;1.60;;
18875;SDS011;9570;50.854;13.778;2022-09-09T06:03:39;2.17;;;1.30;;
18875;SDS011;9570;50.854;13.778;2022-09-09T06:06:06;3.53;;;1.30;;
18875;SDS011;9570;50.854;13.778;2022-09-09T06:08:34;4.13;;;1.70;;
18875;SDS011;9570;50.854;13.778;2022-09-09T06:11:04;3.83;;;1.50;;
18875;SDS011;9570;50.854;13.778;2022-09-09T06:13:31;4.93;;;1.60;;
18875;SDS011;9570;50.854;13.778;2022-09-09T06:15:57;4.53;;;2.13;;
18875;SDS011;9570;50.854;13.778;2022-09-09T06:18:23;3.87;;;2.47;;
18875;SDS011;9570;50.854;13.778;2022-09-09T06:20:54;6.07;;;2.40;;
18875;SDS011;9570;50.854;13.778;2022-09-09T06:23:20;4.10;;;2.30;;
18875;SDS011;9570;50.854;13.778;2022-09-09T06:25:46;6.07;;;2.60;;
18875;SDS011;9570;50.854;13.778;2022-09-09T06:28:11;7.23;;;2.20;;
18875;SDS011;9570;50.854;13.778;2022-09-09T06:30:38;2.47;;;1.70;;
18875;SDS011;9570;50.854;13.778;2022-09-09T06:33:04;4.67;;;2.03;;
18875;SDS011;9570;50.854;13.778;2022-09-09T06:35:30;6.90;;;1.90;;
18875;SDS011;9570;50.854;13.778;2022-09-09T06:37:55;6.77;;;2.50;;
18875;SDS011;9570;50.854;13.778;2022-09-09T06:40:23;7.23;;;2.40;;
18875;SDS011;9570;50.854;13.778;2022-09-09T06:42:49;8.33;;;2.53;;
18875;SDS011;9570;50.854;13.778;2022-09-09T06:45:14;6.47;;;2.90;;
18875;SDS011;9570;50.854;13.778;2022-09-09T06:47:40;4.70;;;2.33;;
18875;SDS011;9570;50.854;13.778;2022-09-09T06:50:07;5.60;;;2.30;;
18875;SDS011;9570;50.854;13.778;2022-09-09T06:52:32;4.20;;;2.10;;
18875;SDS011;9570;50.854;13.778;2022-09-09T06:54:58;3.30;;;2.10;;
18875;SDS011;9570;50.854;13.778;2022-09-09T06:57:24;3.67;;;2.30;;
18875;SDS011;9570;50.854;13.778;2022-09-09T06:59:49;1.83;;;1.50;;
18875;SDS011;9570;50.854;13.778;2022-09-09T07:02:15;2.13;;;1.80;;
18875;SDS011;9570;50.854;13.778;2022-09-09T07:04:40;3.10;;;1.30;;
18875;SDS011;9570;50.854;13.778;2022-09-09T07:07:06;3.00;;;1.40;;
18875;SDS011;9570;50.854;13.778;2022-09-09T07:09:33;3.17;;;1.43;;
18875;SDS011;9570;50.854;13.778;2022-09-09T07:11:58;2.87;;;1.20;;
18875;SDS011;9570;50.854;13.778;2022-09-09T07:14:24;2.90;;;1.17;;
18875;SDS011;9570;50.854;13.778;2022-09-09T07:16:50;8.37;;;1.50;;
18875;SDS011;9570;50.854;13.778;2022-09-09T07:19:15;5.70;;;1.80;;
18875;SDS011;9570;50.854;13.778;2022-09-09T07:21:41;4.50;;;1.70;;
18875;SDS011;9570;50.854;13.778;2022-09-09T07:24:07;3.83;;;1.60;;
18875;SDS011;9570;50.854;13.778;2022-09-09T07:26:35;4.67;;;1.37;;
18875;SDS011;9570;50.854;13.778;2022-09-09T07:29:01;5.33;;;1.50;;
18875;SDS011;9570;50.854;13.778;2022-09-09T07:31:28;3.03;;;1.23;;
18875;SDS011;9570;50.854;13.778;2022-09-09T07:33:56;6.30;;;1.93;;
18875;SDS011;9570;50.854;13.778;2022-09-09T07:36:23;3.50;;;1.80;;
18875;SDS011;9570;50.854;13.778;2022-09-09T07:38:54;3.37;;;1.53;;
18875;SDS011;9570;50.854;13.778;2022-09-09T07:41:31;5.37;;;1.80;;
18875;SDS011;9570;50.854;13.778;2022-09-09T07:44:09;4.57;;;1.70;;
18875;SDS011;9570;50.854;13.778;2022-09-09T07:46:40;3.53;;;1.80;;
18875;SDS011;9570;50.854;13.778;2022-09-09T07:49:06;5.60;;;1.73;;
18875;SDS011;9570;50.854;13.778;2022-09-09T07:51:33;4.37;;;1.87;;
18875;SDS011;9570;50.854;13.778;2022-09-09T07:54:02;6.27;;;2.23;;
18875;SDS011;9570;50.854;13.778;2022-09-09T07:56:31;5.03;;;2.10;;
18875;SDS011;9570;50.854;13.778;2022-09-09T07:58:57;3.47;;;1.83;;
18875;SDS011;9570;50.854;13.778;2022-09-09T08:01:30;7.43;;;2.00;;
18875;SDS011;9570;50.854;13.778;2022-09-09T08:03:58;4.97;;;1.60;;
18875;SDS011;9570;50.854;13.778;2022-09-09T08:06:26;3.60;;;1.53;;
18875;SDS011;9570;50.854;13.778;2022-09-09T08:08:54;5.77;;;1.90;;
18875;SDS011;9570;50.854;13.778;2022-09-09T08:11:20;1.77;;;1.30;;
18875;SDS011;9570;50.854;13.778;2022-09-09T08:13:48;2.70;;;1.47;;
18875;SDS011;9570;50.854;13.778;2022-09-09T08:16:24;4.47;;;1.43;;
18875;SDS011;9570;50.854;13.778;2022-09-09T08:18:52;5.87;;;1.30;;
18875;SDS011;9570;50.854;13.778;2022-09-09T08:21:20;2.70;;;1.33;;
18875;SDS011;9570;50.854;13.778;2022-09-09T08:23:49;3.27;;;1.00;;
18875;SDS011;9570;50.854;13.778;2022-09-09T08:26:18;4.00;;;1.50;;
18875;SDS011;9570;50.854;13.778;2022-09-09T08:28:48;4.40;;;2.10;;
18875;SDS011;9570;50.854;13.778;2022-09-09T08:31:22;4.93;;;1.80;;
18875;SDS011;9570;50.854;13.778;2022-09-09T08:33:50;3.27;;;1.43;;
18875;SDS011;9570;50.854;13.778;2022-09-09T08:36:19;6.20;;;1.50;;
18875;SDS011;9570;50.854;13.778;2022-09-09T08:38:47;2.67;;;1.40;;
18875;SDS011;9570;50.854;13.778;2022-09-09T08:41:30;3.13;;;1.20;;
18875;SDS011;9570;50.854;13.778;2022-09-09T08:46:47;6.33;;;1.40;;
18875;SDS011;9570;50.854;13.778;2022-09-09T08:49:40;3.63;;;1.30;;
18875;SDS011;9570;50.854;13.778;2022-09-09T08:52:29;6.13;;;1.80;;
18875;SDS011;9570;50.854;13.778;2022-09-09T08:55:11;3.07;;;1.33;;
18875;SDS011;9570;50.854;13.778;2022-09-09T08:57:38;3.77;;;1.47;;
18875;SDS011;9570;50.854;13.778;2022-09-09T09:00:04;3.93;;;1.47;;
18875;SDS011;9570;50.854;13.778;2022-09-09T09:05:46;4.03;;;1.63;;
18875;SDS011;9570;50.854;13.778;2022-09-09T09:11:10;6.73;;;2.67;;
18875;SDS011;9570;50.854;13.778;2022-09-09T09:13:38;9.60;;;2.40;;
18875;SDS011;9570;50.854;13.778;2022-09-09T09:16:19;5.10;;;1.70;;
18875;SDS011;9570;50.854;13.778;2022-09-09T09:18:50;5.37;;;1.60;;
18875;SDS011;9570;50.854;13.778;2022-09-09T09:21:21;4.77;;;1.60;;
18875;SDS011;9570;50.854;13.778;2022-09-09T09:23:52;5.30;;;1.57;;
18875;SDS011;9570;50.854;13.778;2022-09-09T09:26:23;4.40;;;2.00;;
18875;SDS011;9570;50.854;13.778;2022-09-09T09:28:54;3.37;;;1.60;;
18875;SDS011;9570;50.854;13.778;2022-09-09T09:31:22;3.67;;;1.40;;
18875;SDS011;9570;50.854;13.778;2022-09-09T09:33:52;2.40;;;1.40;;
18875;SDS011;9570;50.854;13.778;2022-09-09T09:36:19;4.50;;;1.40;;
18875;SDS011;9570;50.854;13.778;2022-09-09T09:39:21;4.30;;;1.60;;
18875;SDS011;9570;50.854;13.778;2022-09-09T09:41:50;3.13;;;1.47;;
18875;SDS011;9570;50.854;13.778;2022-09-09T09:44:29;6.33;;;2.47;;
18875;SDS011;9570;50.854;13.778;2022-09-09T09:47:06;3.43;;;1.70;;
18875;SDS011;9570;50.854;13.778;2022-09-09T09:49:35;4.30;;;1.80;;
18875;SDS011;9570;50.854;13.778;2022-09-09T09:52:02;4.43;;;1.53;;
18875;SDS011;9570;50.854;13.778;2022-09-09T09:54:38;3.53;;;1.60;;
18875;SDS011;9570;50.854;13.778;2022-09-09T09:57:10;2.97;;;1.77;;
18875;SDS011;9570;50.854;13.778;2022-09-09T09:59:37;3.07;;;1.70;;
18875;SDS011;9570;50.854;13.778;2022-09-09T10:02:18;4.17;;;1.83;;
18875;SDS011;9570;50.854;13.778;2022-09-09T10:04:48;2.83;;;1.60;;
18875;SDS011;9570;50.854;13.778;2022-09-09T10:07:18;6.90;;;1.83;;
18875;SDS011;9570;50.854;13.778;2022-09-09T10:09:44;4.40;;;1.80;;
18875;SDS011;9570;50.854;13.778;2022-09-09T10:15:19;2.67;;;1.60;;
18875;SDS011;9570;50.854;13.778;2022-09-09T10:21:32;5.73;;;1.70;;
18875;SDS011;9570;50.854;13.778;2022-09-09T10:24:27;4.70;;;1.90;;
18875;SDS011;9570;50.854;13.778;2022-09-09T10:30:16;4.67;;;1.70;;
18875;SDS011;9570;50.854;13.778;2022-09-09T10:33:03;3.57;;;1.50;;
18875;SDS011;9570;50.854;13.778;2022-09-09T10:38:52;2.27;;;1.23;;
18875;SDS011;9570;50.854;13.778;2022-09-09T10:41:34;4.27;;;1.50;;
18875;SDS011;9570;50.854;13.778;2022-09-09T10:47:28;4.07;;;1.40;;
18875;SDS011;9570;50.854;13.778;2022-09-09T10:55:18;5.07;;;1.50;;
18875;SDS011;9570;50.854;13.778;2022-09-09T10:57:47;2.50;;;1.47;;
18875;SDS011;9570;50.854;13.778;2022-09-09T11:02:49;3.73;;;1.60;;
18875;SDS011;9570;50.854;13.778;2022-09-09T11:05:21;2.17;;;1.30;;
18875;SDS011;9570;50.854;13.778;2022-09-09T11:07:59;4.13;;;1.57;;
18875;SDS011;9570;50.854;13.778;2022-09-09T11:10:36;2.77;;;1.40;;
18875;SDS011;9570;50.854;13.778;2022-09-09T11:13:13;1.80;;;1.37;;
18875;SDS011;9570;50.854;13.778;2022-09-09T11:15:46;2.50;;;1.57;;
18875;SDS011;9570;50.854;13.778;2022-09-09T11:18:19;2.10;;;1.20;;
18875;SDS011;9570;50.854;13.778;2022-09-09T11:20:47;5.53;;;1.40;;
18875;SDS011;9570;50.854;13.778;2022-09-09T11:23:17;3.70;;;1.40;;
18875;SDS011;9570;50.854;13.778;2022-09-09T11:25:59;3.63;;;1.83;;
18875;SDS011;9570;50.854;13.778;2022-09-09T11:28:41;2.57;;;1.40;;
18875;SDS011;9570;50.854;13.778;2022-09-09T11:34:19;2.43;;;1.47;;
18875;SDS011;9570;50.854;13.778;2022-09-09T11:37:17;3.73;;;1.50;;
18875;SDS011;9570;50.854;13.778;2022-09-09T11:40:07;2.50;;;1.50;;
18875;SDS011;9570;50.854;13.778;2022-09-09T11:42:41;10.10;;;1.70;;
18875;SDS011;9570;50.854;13.778;2022-09-09T11:45:23;3.17;;;1.60;;
18875;SDS011;9570;50.854;13.778;2022-09-09T11:47:56;2.10;;;1.50;;
18875;SDS011;9570;50.854;13.778;2022-09-09T11:52:49;3.63;;;1.90;;
18875;SDS011;9570;50.854;13.778;2022-09-09T11:57:58;3.53;;;1.67;;
18875;SDS011;9570;50.854;13.778;2022-09-09T12:00:38;3.43;;;2.00;;
18875;SDS011;9570;50.854;13.778;2022-09-09T12:05:57;4.10;;;1.83;;
18875;SDS011;9570;50.854;13.778;2022-09-09T12:08:27;4.83;;;1.70;;
18875;SDS011;9570;50.854;13.778;2022-09-09T12:10:55;4.50;;;1.90;;
18875;SDS011;9570;50.854;13.778;2022-09-09T12:13:23;5.03;;;1.90;;
18875;SDS011;9570;50.854;13.778;2022-09-09T12:15:56;4.20;;;1.67;;
18875;SDS011;9570;50.854;13.778;2022-09-09T12:23:52;4.40;;;2.10;;
18875;SDS011;9570;50.854;13.778;2022-09-09T12:26:31;3.17;;;1.87;;
18875;SDS011;9570;50.854;13.778;2022-09-09T12:29:10;2.90;;;1.90;;
18875;SDS011;9570;50.854;13.778;2022-09-09T12:31:45;2.53;;;1.70;;
18875;SDS011;9570;50.854;13.778;2022-09-09T12:34:40;2.97;;;1.80;;
18875;SDS011;9570;50.854;13.778;2022-09-09T12:37:14;4.30;;;1.90;;
18875;SDS011;9570;50.854;13.778;2022-09-09T12:40:05;3.77;;;2.13;;
18875;SDS011;9570;50.854;13.778;2022-09-09T12:42:48;4.23;;;1.77;;
18875;SDS011;9570;50.854;13.778;2022-09-09T12:45:21;5.30;;;2.20;;
18875;SDS011;9570;50.854;13.778;2022-09-09T12:47:55;5.43;;;1.60;;
18875;SDS011;9570;50.854;13.778;2022-09-09T12:50:26;2.97;;;1.90;;
18875;SDS011;9570;50.854;13.778;2022-09-09T12:52:57;2.93;;;2.13;;
18875;SDS011;9570;50.854;13.778;2022-09-09T12:55:29;7.77;;;2.10;;
18875;SDS011;9570;50.854;13.778;2022-09-09T12:57:58;3.57;;;2.00;;
18875;SDS011;9570;50.854;13.778;2022-09-09T13:00:25;4.07;;;2.10;;
18875;SDS011;9570;50.854;13.778;2022-09-09T13:02:53;2.53;;;1.53;;
18875;SDS011;9570;50.854;13.778;2022-09-09T13:05:27;2.20;;;1.60;;
18875;SDS011;9570;50.854;13.778;2022-09-09T13:08:02;2.77;;;1.87;;
18875;SDS011;9570;50.854;13.778;2022-09-09T13:10:30;4.03;;;1.83;;
18875;SDS011;9570;50.854;13.778;2022-09-09T13:13:28;4.23;;;1.30;;
18875;SDS011;9570;50.854;13.778;2022-09-09T13:15:58;3.70;;;1.63;;
18875;SDS011;9570;50.854;13.778;2022-09-09T13:18:29;3.33;;;1.30;;
18875;SDS011;9570;50.854;13.778;2022-09-09T13:20:58;2.53;;;1.20;;
18875;SDS011;9570;50.854;13.778;2022-09-09T13:23:26;1.53;;;1.20;;
18875;SDS011;9570;50.854;13.778;2022-09-09T13:25:58;3.53;;;1.50;;
18875;SDS011;9570;50.854;13.778;2022-09-09T13:28:26;4.17;;;1.30;;
18875;SDS011;9570;50.854;13.778;2022-09-09T13:31:04;2.73;;;1.30;;
18875;SDS011;9570;50.854;13.778;2022-09-09T13:33:37;4.97;;;1.57;;
18875;SDS011;9570;50.854;13.778;2022-09-09T13:36:05;3.07;;;1.30;;
18875;SDS011;9570;50.854;13.778;2022-09-09T13:38:33;4.73;;;1.60;;
18875;SDS011;9570;50.854;13.778;2022-09-09T13:43:34;4.47;;;1.43;;
18875;SDS011;9570;50.854;13.778;2022-09-09T13:51:41;3.30;;;1.30;;
18875;SDS011;9570;50.854;13.778;2022-09-09T13:54:10;5.53;;;1.70;;
18875;SDS011;9570;50.854;13.778;2022-09-09T13:56:38;3.17;;;1.50;;
18875;SDS011;9570;50.854;13.778;2022-09-09T13:59:05;4.40;;;1.60;;
18875;SDS011;9570;50.854;13.778;2022-09-09T14:01:34;3.30;;;1.70;;
18875;SDS011;9570;50.854;13.778;2022-09-09T14:03:59;4.03;;;1.83;;
18875;SDS011;9570;50.854;13.778;2022-09-09T14:06:25;3.10;;;1.50;;
18875;SDS011;9570;50.854;13.778;2022-09-09T14:08:52;2.23;;;1.30;;
18875;SDS011;9570;50.854;13.778;2022-09-09T14:11:19;6.17;;;1.90;;
18875;SDS011;9570;50.854;13.778;2022-09-09T14:13:46;2.03;;;1.53;;
18875;SDS011;9570;50.854;13.778;2022-09-09T14:16:12;3.90;;;1.70;;
18875;SDS011;9570;50.854;13.778;2022-09-09T14:18:37;1.93;;;1.50;;
18875;SDS011;9570;50.854;13.778;2022-09-09T14:21:03;2.87;;;1.20;;
18875;SDS011;9570;50.854;13.778;2022-09-09T14:23:29;6.13;;;1.80;;
18875;SDS011;9570;50.854;13.778;2022-09-09T14:25:55;3.10;;;1.47;;
18875;SDS011;9570;50.854;13.778;2022-09-09T14:28:21;2.97;;;1.20;;
18875;SDS011;9570;50.854;13.778;2022-09-09T14:30:46;3.73;;;1.27;;
18875;SDS011;9570;50.854;13.778;2022-09-09T14:33:13;5.63;;;1.33;;
18875;SDS011;9570;50.854;13.778;2022-09-09T14:35:39;5.53;;;1.53;;
18875;SDS011;9570;50.854;13.778;2022-09-09T14:38:06;2.00;;;1.20;;
18875;SDS011;9570;50.854;13.778;2022-09-09T14:40:33;5.00;;;1.30;;
18875;SDS011;9570;50.854;13.778;2022-09-09T14:43:03;3.77;;;1.97;;
18875;SDS011;9570;50.854;13.778;2022-09-09T14:45:29;4.63;;;1.80;;
18875;SDS011;9570;50.854;13.778;2022-09-09T14:47:55;3.77;;;1.50;;
18875;SDS011;9570;50.854;13.778;2022-09-09T14:50:20;2.77;;;1.60;;
18875;SDS011;9570;50.854;13.778;2022-09-09T14:52:47;2.17;;;1.40;;
18875;SDS011;9570;50.854;13.778;2022-09-09T14:55:13;2.93;;;1.37;;
18875;SDS011;9570;50.854;13.778;2022-09-09T14:57:40;3.93;;;1.80;;
18875;SDS011;9570;50.854;13.778;2022-09-09T15:00:06;4.87;;;1.50;;
18875;SDS011;9570;50.854;13.778;2022-09-09T15:02:33;1.30;;;1.20;;
18875;SDS011;9570;50.854;13.778;2022-09-09T15:04:59;3.23;;;1.10;;
18875;SDS011;9570;50.854;13.778;2022-09-09T15:07:25;4.70;;;1.03;;
18875;SDS011;9570;50.854;13.778;2022-09-09T15:09:51;2.73;;;1.30;;
18875;SDS011;9570;50.854;13.778;2022-09-09T15:12:17;6.80;;;1.30;;
18875;SDS011;9570;50.854;13.778;2022-09-09T15:14:45;5.23;;;1.50;;
18875;SDS011;9570;50.854;13.778;2022-09-09T15:17:11;2.93;;;1.40;;
18875;SDS011;9570;50.854;13.778;2022-09-09T15:19:37;1.90;;;1.17;;
18875;SDS011;9570;50.854;13.778;2022-09-09T15:22:03;4.43;;;1.30;;
18875;SDS011;9570;50.854;13.778;2022-09-09T15:24:30;3.23;;;1.37;;
18875;SDS011;9570;50.854;13.778;2022-09-09T15:26:59;2.53;;;1.33;;
18875;SDS011;9570;50.854;13.778;2022-09-09T15:29:26;5.53;;;1.33;;
18875;SDS011;9570;50.854;13.778;2022-09-09T15:31:53;3.80;;;1.50;;
18875;SDS011;9570;50.854;13.778;2022-09-09T15:34:19;5.30;;;1.87;;
18875;SDS011;9570;50.854;13.778;2022-09-09T15:36:45;6.23;;;1.73;;
18875;SDS011;9570;50.854;13.778;2022-09-09T15:39:14;5.33;;;1.83;;
18875;SDS011;9570;50.854;13.778;2022-09-09T15:41:42;4.90;;;1.53;;
18875;SDS011;9570;50.854;13.778;2022-09-09T15:44:09;5.37;;;1.80;;
18875;SDS011;9570;50.854;13.778;2022-09-09T15:46:38;9.90;;;1.70;;
18875;SDS011;9570;50.854;13.778;2022-09-09T15:49:07;4.53;;;1.60;;
18875;SDS011;9570;50.854;13.778;2022-09-09T15:51:35;5.67;;;1.57;;
18875;SDS011;9570;50.854;13.778;2022-09-09T15:54:02;6.97;;;1.57;;
18875;SDS011;9570;50.854;13.778;2022-09-09T15:56:29;3.63;;;1.73;;
18875;SDS011;9570;50.854;13.778;2022-09-09T15:58:58;2.90;;;1.63;;
18875;SDS011;9570;50.854;13.778;2022-09-09T16:01:25;3.50;;;1.67;;
18875;SDS011;9570;50.854;13.778;2022-09-09T16:03:51;3.47;;;1.20;;
18875;SDS011;9570;50.854;13.778;2022-09-09T16:06:18;5.80;;;1.70;;
18875;SDS011;9570;50.854;13.778;2022-09-09T16:08:46;3.87;;;1.73;;
18875;SDS011;9570;50.854;13.778;2022-09-09T16:11:17;6.43;;;1.53;;
18875;SDS011;9570;50.854;13.778;2022-09-09T16:13:48;4.07;;;1.80;;
18875;SDS011;9570;50.854;13.778;2022-09-09T16:16:16;4.87;;;1.50;;
18875;SDS011;9570;50.854;13.778;2022-09-09T16:18:44;2.73;;;1.70;;
18875;SDS011;9570;50.854;13.778;2022-09-09T16:21:22;5.43;;;1.67;;
18875;SDS011;9570;50.854;13.778;2022-09-09T16:23:49;5.00;;;1.57;;
18875;SDS011;9570;50.854;13.778;2022-09-09T16:26:18;6.20;;;2.40;;
18875;SDS011;9570;50.854;13.778;2022-09-09T16:28:44;4.07;;;2.30;;
18875;SDS011;9570;50.854;13.778;2022-09-09T16:31:15;4.40;;;1.80;;